sensor_id;sensor_type;location;lat;lon;timestamp;pressure;altitude;pressure_sealevel;temperature;humidity
596;BME280;19946;49.306;11.350;2023-04-07T00:02:59;96349.00;;;-2.69;100.00
596;BME280;19946;49.306;11.350;2023-04-07T00:06:07;96225.66;;;-3.41;100.00
596;BME280;19946;49.306;11.350;2023-04-07T00:09:10;96439.69;;;-2.04;100.00
596;BME280;19946;49.306;11.350;2023-04-07T00:12:11;96279.03;;;-3.22;100.00
596;BME280;19946;49.306;11.350;2023-04-07T00:15:12;96299.63;;;-3.07;100.00
596;BME280;19946;49.306;11.350;2023-04-07T00:18:13;96296.31;;;-3.09;100.00
596;BME280;19946;49.306;11.350;2023-04-07T00:21:16;96230.06;;;-3.46;100.00
596;BME280;19946;49.306;11.350;2023-04-07T00:24:20;96386.72;;;-2.60;100.00
596;BME280;19946;49.306;11.350;2023-04-07T00:27:21;96305.25;;;-2.99;100.00
596;BME280;19946;49.306;11.350;2023-04-07T00:30:22;96327.63;;;-2.15;100.00
596;BME280;19946;49.306;11.350;2023-04-07T00:33:23;96273.47;;;-1.70;100.00
596;BME280;19946;49.306;11.350;2023-04-07T00:36:24;96270.25;;;-1.52;100.00
596;BME280;19946;49.306;11.350;2023-04-07T00:39:26;96381.34;;;-0.73;100.00
596;BME280;19946;49.306;11.350;2023-04-07T00:42:27;96277.00;;;-1.31;100.00
596;BME280;19946;49.306;11.350;2023-04-07T00:45:28;96412.03;;;-0.37;100.00
596;BME280;19946;49.306;11.350;2023-04-07T00:48:29;96301.97;;;-1.00;100.00
596;BME280;19946;49.306;11.350;2023-04-07T00:51:33;96228.91;;;-1.56;100.00
596;BME280;19946;49.306;11.350;2023-04-07T00:54:41;96238.28;;;-1.17;100.00
596;BME280;19946;49.306;11.350;2023-04-07T00:57:42;96169.03;;;-1.41;100.00
596;BME280;19946;49.306;11.350;2023-04-07T01:04:27;96261.16;;;-0.97;100.00
596;BME280;19946;49.306;11.350;2023-04-07T01:11:04;96198.97;;;-2.11;100.00
596;BME280;19946;49.306;11.350;2023-04-07T01:14:09;96179.63;;;-2.36;100.00
596;BME280;19946;49.306;11.350;2023-04-07T01:17:34;96182.50;;;-2.45;100.00
596;BME280;19946;49.306;11.350;2023-04-07T01:20:39;96189.47;;;-2.50;100.00
596;BME280;19946;49.306;11.350;2023-04-07T01:24:06;96373.84;;;-1.40;100.00
596;BME280;19946;49.306;11.350;2023-04-07T01:27:24;96382.97;;;-1.56;100.00
596;BME280;19946;49.306;11.350;2023-04-07T01:30:38;96193.50;;;-2.68;100.00
596;BME280;19946;49.306;11.350;2023-04-07T01:33:44;96169.84;;;-2.68;100.00
596;BME280;19946;49.306;11.350;2023-04-07T01:36:46;96242.84;;;-2.31;100.00
596;BME280;19946;49.306;11.350;2023-04-07T01:39:48;96245.69;;;-2.39;100.00
596;BME280;19946;49.306;11.350;2023-04-07T01:42:50;96183.75;;;-2.55;100.00
596;BME280;19946;49.306;11.350;2023-04-07T01:45:53;96234.72;;;-2.39;100.00
596;BME280;19946;49.306;11.350;2023-04-07T01:48:55;96324.53;;;-2.00;100.00
596;BME280;19946;49.306;11.350;2023-04-07T01:51:57;96307.13;;;-2.32;100.00
596;BME280;19946;49.306;11.350;2023-04-07T01:55:04;96178.63;;;-2.77;100.00
596;BME280;19946;49.306;11.350;2023-04-07T01:58:08;96241.53;;;-2.41;100.00
596;BME280;19946;49.306;11.350;2023-04-07T02:01:13;96237.94;;;-2.36;100.00
596;BME280;19946;49.306;11.350;2023-04-07T02:04:31;96204.16;;;-2.81;100.00
596;BME280;19946;49.306;11.350;2023-04-07T02:07:51;96237.75;;;-2.53;100.00
596;BME280;19946;49.306;11.350;2023-04-07T02:10:54;96262.75;;;-2.44;100.00
596;BME280;19946;49.306;11.350;2023-04-07T02:14:00;96140.63;;;-3.23;100.00
596;BME280;19946;49.306;11.350;2023-04-07T02:17:04;96149.13;;;-3.24;100.00
596;BME280;19946;49.306;11.350;2023-04-07T02:20:10;96224.44;;;-2.81;100.00
596;BME280;19946;49.306;11.350;2023-04-07T02:23:15;96206.84;;;-2.86;100.00
596;BME280;19946;49.306;11.350;2023-04-07T02:26:17;96237.41;;;-2.67;100.00
596;BME280;19946;49.306;11.350;2023-04-07T02:29:17;96195.06;;;-2.87;100.00
596;BME280;19946;49.306;11.350;2023-04-07T02:32:18;96357.75;;;-2.06;100.00
596;BME280;19946;49.306;11.350;2023-04-07T02:35:19;96341.75;;;-2.08;100.00
596;BME280;19946;49.306;11.350;2023-04-07T02:38:21;96325.56;;;-2.27;100.00
596;BME280;19946;49.306;11.350;2023-04-07T02:41:21;96268.22;;;-2.54;100.00
596;BME280;19946;49.306;11.350;2023-04-07T02:44:22;96134.25;;;-3.34;100.00
596;BME280;19946;49.306;11.350;2023-04-07T02:47:24;96328.00;;;-2.02;100.00
596;BME280;19946;49.306;11.350;2023-04-07T02:50:27;96143.94;;;-3.21;100.00
596;BME280;19946;49.306;11.350;2023-04-07T02:53:28;96232.59;;;-2.73;100.00
596;BME280;19946;49.306;11.350;2023-04-07T02:56:32;96350.91;;;-2.04;100.00
596;BME280;19946;49.306;11.350;2023-04-07T02:59:33;96174.84;;;-3.12;100.00
596;BME280;19946;49.306;11.350;2023-04-07T03:02:34;96198.69;;;-2.94;100.00
596;BME280;19946;49.306;11.350;2023-04-07T03:05:37;96192.22;;;-3.03;100.00
596;BME280;19946;49.306;11.350;2023-04-07T03:08:44;96223.09;;;-2.68;100.00
596;BME280;19946;49.306;11.350;2023-04-07T03:11:45;96204.47;;;-2.90;100.00
596;BME280;19946;49.306;11.350;2023-04-07T03:14:49;96203.38;;;-3.07;100.00
596;BME280;19946;49.306;11.350;2023-04-07T03:17:50;96337.41;;;-2.28;100.00
596;BME280;19946;49.306;11.350;2023-04-07T03:20:52;96343.56;;;-2.11;100.00
596;BME280;19946;49.306;11.350;2023-04-07T03:23:54;96312.50;;;-2.16;100.00
596;BME280;19946;49.306;11.350;2023-04-07T03:26:56;96195.44;;;-2.98;100.00
596;BME280;19946;49.306;11.350;2023-04-07T03:30:12;96336.75;;;-2.09;100.00
596;BME280;19946;49.306;11.350;2023-04-07T03:33:13;96203.59;;;-2.89;100.00
596;BME280;19946;49.306;11.350;2023-04-07T03:36:14;96084.56;;;-3.59;100.00
596;BME280;19946;49.306;11.350;2023-04-07T03:39:15;96323.19;;;-1.87;100.00
596;BME280;19946;49.306;11.350;2023-04-07T03:42:16;96214.91;;;-2.75;100.00
596;BME280;19946;49.306;11.350;2023-04-07T03:45:18;96322.25;;;-1.84;100.00
596;BME280;19946;49.306;11.350;2023-04-07T03:48:27;96324.25;;;-1.70;100.00
596;BME280;19946;49.306;11.350;2023-04-07T03:51:37;96324.09;;;-1.66;100.00
596;BME280;19946;49.306;11.350;2023-04-07T03:54:46;96224.97;;;-2.50;100.00
596;BME280;19946;49.306;11.350;2023-04-07T03:57:48;96151.22;;;-2.89;100.00
596;BME280;19946;49.306;11.350;2023-04-07T04:00:49;96161.72;;;-2.76;100.00
596;BME280;19946;49.306;11.350;2023-04-07T04:03:53;96350.59;;;-1.73;100.00
596;BME280;19946;49.306;11.350;2023-04-07T04:07:01;96127.88;;;-3.20;100.00
596;BME280;19946;49.306;11.350;2023-04-07T04:10:13;96317.25;;;-1.86;100.00
596;BME280;19946;49.306;11.350;2023-04-07T04:13:19;96327.81;;;-2.19;100.00
596;BME280;19946;49.306;11.350;2023-04-07T04:16:20;96324.75;;;-2.28;100.00
596;BME280;19946;49.306;11.350;2023-04-07T04:19:23;96199.66;;;-3.21;100.00
596;BME280;19946;49.306;11.350;2023-04-07T04:22:25;96182.25;;;-3.31;100.00
596;BME280;19946;49.306;11.350;2023-04-07T04:25:30;96194.63;;;-3.23;100.00
596;BME280;19946;49.306;11.350;2023-04-07T04:28:31;96152.09;;;-3.61;100.00
596;BME280;19946;49.306;11.350;2023-04-07T04:31:35;96278.34;;;-2.78;100.00
596;BME280;19946;49.306;11.350;2023-04-07T04:34:43;96269.00;;;-2.52;100.00
596;BME280;19946;49.306;11.350;2023-04-07T04:37:45;96245.66;;;-2.61;100.00
596;BME280;19946;49.306;11.350;2023-04-07T04:40:49;96270.97;;;-2.37;100.00
596;BME280;19946;49.306;11.350;2023-04-07T04:43:58;96122.00;;;-3.46;100.00
596;BME280;19946;49.306;11.350;2023-04-07T04:47:00;96172.09;;;-3.06;100.00
596;BME280;19946;49.306;11.350;2023-04-07T04:50:06;96159.25;;;-3.01;100.00
596;BME280;19946;49.306;11.350;2023-04-07T04:53:15;96317.91;;;-2.04;100.00
596;BME280;19946;49.306;11.350;2023-04-07T04:56:22;96162.66;;;-2.79;100.00
596;BME280;19946;49.306;11.350;2023-04-07T04:59:25;96153.53;;;-2.83;100.00
596;BME280;19946;49.306;11.350;2023-04-07T05:02:32;96115.22;;;-2.75;100.00
596;BME280;19946;49.306;11.350;2023-04-07T05:05:35;96196.31;;;-2.08;100.00
596;BME280;19946;49.306;11.350;2023-04-07T05:08:37;96180.47;;;-1.93;100.00
596;BME280;19946;49.306;11.350;2023-04-07T05:11:40;96313.91;;;-0.82;100.00
596;BME280;19946;49.306;11.350;2023-04-07T05:14:41;96206.94;;;-1.36;100.00
596;BME280;19946;49.306;11.350;2023-04-07T05:17:43;96320.88;;;-0.27;100.00
596;BME280;19946;49.306;11.350;2023-04-07T05:20:54;96091.19;;;-1.42;100.00
596;BME280;19946;49.306;11.350;2023-04-07T05:23:55;96311.72;;;0.25;100.00
596;BME280;19946;49.306;11.350;2023-04-07T05:26:57;96305.03;;;0.41;100.00
596;BME280;19946;49.306;11.350;2023-04-07T05:46:24;96270.13;;;1.45;100.00
596;BME280;19946;49.306;11.350;2023-04-07T05:49:31;96146.38;;;0.55;100.00
596;BME280;19946;49.306;11.350;2023-04-07T05:52:37;96153.63;;;0.80;100.00
596;BME280;19946;49.306;11.350;2023-04-07T05:55:50;96177.59;;;0.93;100.00
596;BME280;19946;49.306;11.350;2023-04-07T06:02:37;96244.00;;;1.89;100.00
596;BME280;19946;49.306;11.350;2023-04-07T06:05:41;96171.94;;;1.52;100.00
596;BME280;19946;49.306;11.350;2023-04-07T06:08:45;96310.97;;;2.41;100.00
596;BME280;19946;49.306;11.350;2023-04-07T06:11:46;96077.47;;;1.06;100.00
596;BME280;19946;49.306;11.350;2023-04-07T06:14:54;96104.75;;;1.20;100.00
596;BME280;19946;49.306;11.350;2023-04-07T06:17:55;96293.72;;;2.60;100.00
596;BME280;19946;49.306;11.350;2023-04-07T06:20:58;96307.38;;;2.75;100.00
596;BME280;19946;49.306;11.350;2023-04-07T06:23:59;96204.59;;;2.24;100.00
596;BME280;19946;49.306;11.350;2023-04-07T06:27:01;96152.31;;;2.00;100.00
596;BME280;19946;49.306;11.350;2023-04-07T06:30:03;96298.53;;;3.10;100.00
596;BME280;19946;49.306;11.350;2023-04-07T06:33:07;96179.72;;;2.42;100.00
596;BME280;19946;49.306;11.350;2023-04-07T06:36:07;96216.16;;;2.75;100.00
596;BME280;19946;49.306;11.350;2023-04-07T06:39:10;96161.75;;;2.43;100.00
596;BME280;19946;49.306;11.350;2023-04-07T06:42:10;96152.81;;;2.36;100.00
596;BME280;19946;49.306;11.350;2023-04-07T06:45:23;96302.69;;;3.41;100.00
596;BME280;19946;49.306;11.350;2023-04-07T06:51:41;96189.63;;;2.92;100.00
596;BME280;19946;49.306;11.350;2023-04-07T06:54:42;96154.00;;;2.89;100.00
596;BME280;19946;49.306;11.350;2023-04-07T06:57:45;96301.59;;;4.02;100.00
596;BME280;19946;49.306;11.350;2023-04-07T07:00:46;96291.31;;;4.16;100.00
596;BME280;19946;49.306;11.350;2023-04-07T07:03:55;96296.53;;;4.29;100.00
596;BME280;19946;49.306;11.350;2023-04-07T07:06:55;96207.69;;;4.01;100.00
596;BME280;19946;49.306;11.350;2023-04-07T07:09:59;96182.72;;;4.04;100.00
596;BME280;19946;49.306;11.350;2023-04-07T07:13:00;96155.41;;;4.18;100.00
596;BME280;19946;49.306;11.350;2023-04-07T07:16:01;96172.72;;;4.14;100.00
596;BME280;19946;49.306;11.350;2023-04-07T07:25:35;96192.25;;;4.82;100.00
596;BME280;19946;49.306;11.350;2023-04-07T07:32:37;96141.44;;;4.99;100.00
596;BME280;19946;49.306;11.350;2023-04-07T07:35:38;96176.66;;;5.10;100.00
596;BME280;19946;49.306;11.350;2023-04-07T07:48:31;96180.13;;;5.96;99.37
596;BME280;19946;49.306;11.350;2023-04-07T07:51:33;96177.25;;;6.01;97.37
596;BME280;19946;49.306;11.350;2023-04-07T07:54:37;96186.72;;;5.87;100.00
596;BME280;19946;49.306;11.350;2023-04-07T07:57:40;96267.63;;;6.55;100.00
596;BME280;19946;49.306;11.350;2023-04-07T08:03:58;96199.69;;;6.22;100.00
596;BME280;19946;49.306;11.350;2023-04-07T08:07:03;96169.75;;;6.45;100.00
596;BME280;19946;49.306;11.350;2023-04-07T08:10:04;96282.72;;;7.18;91.04
596;BME280;19946;49.306;11.350;2023-04-07T08:19:41;96210.53;;;6.74;89.41
596;BME280;19946;49.306;11.350;2023-04-07T08:22:42;96132.69;;;6.48;100.00
596;BME280;19946;49.306;11.350;2023-04-07T08:25:43;96161.06;;;6.92;89.62
596;BME280;19946;49.306;11.350;2023-04-07T08:28:44;96120.00;;;6.69;77.48
596;BME280;19946;49.306;11.350;2023-04-07T08:31:45;96229.97;;;7.91;82.78
596;BME280;19946;49.306;11.350;2023-04-07T08:34:46;96101.13;;;6.46;75.93
596;BME280;19946;49.306;11.350;2023-04-07T08:37:47;96165.22;;;7.51;74.72
596;BME280;19946;49.306;11.350;2023-04-07T08:40:54;96109.81;;;7.67;72.28
596;BME280;19946;49.306;11.350;2023-04-07T08:44:16;96226.50;;;8.46;69.04
596;BME280;19946;49.306;11.350;2023-04-07T08:47:17;96185.22;;;8.67;72.60
596;BME280;19946;49.306;11.350;2023-04-07T08:50:25;96170.94;;;8.31;62.80
596;BME280;19946;49.306;11.350;2023-04-07T08:53:48;96240.63;;;8.95;62.12
596;BME280;19946;49.306;11.350;2023-04-07T08:56:51;96152.19;;;7.86;63.17
596;BME280;19946;49.306;11.350;2023-04-07T08:59:52;96153.22;;;7.94;74.13
596;BME280;19946;49.306;11.350;2023-04-07T09:02:54;96127.19;;;7.97;63.34
596;BME280;19946;49.306;11.350;2023-04-07T09:25:37;96234.66;;;10.06;59.07
596;BME280;19946;49.306;11.350;2023-04-07T09:28:43;96090.69;;;9.67;57.19
596;BME280;19946;49.306;11.350;2023-04-07T09:31:49;96261.91;;;10.60;60.58
596;BME280;19946;49.306;11.350;2023-04-07T09:34:57;96081.78;;;9.40;54.14
596;BME280;19946;49.306;11.350;2023-04-07T09:38:06;96205.91;;;10.59;56.04
596;BME280;19946;49.306;11.350;2023-04-07T09:41:08;96248.00;;;10.61;57.28
596;BME280;19946;49.306;11.350;2023-04-07T09:44:09;96209.56;;;11.05;54.47
596;BME280;19946;49.306;11.350;2023-04-07T09:47:10;96183.31;;;11.74;54.26
596;BME280;19946;49.306;11.350;2023-04-07T09:50:11;96247.94;;;12.31;52.94
596;BME280;19946;49.306;11.350;2023-04-07T09:53:11;96219.38;;;11.77;53.52
596;BME280;19946;49.306;11.350;2023-04-07T09:56:12;96239.56;;;11.83;56.81
596;BME280;19946;49.306;11.350;2023-04-07T09:59:13;96240.59;;;11.99;55.79
596;BME280;19946;49.306;11.350;2023-04-07T10:05:33;96150.00;;;10.95;55.35
596;BME280;19946;49.306;11.350;2023-04-07T10:08:37;96191.72;;;10.82;56.01
596;BME280;19946;49.306;11.350;2023-04-07T10:11:40;96243.25;;;10.85;53.96
596;BME280;19946;49.306;11.350;2023-04-07T10:14:42;96138.00;;;10.17;54.77
596;BME280;19946;49.306;11.350;2023-04-07T10:17:46;96098.38;;;10.16;56.62
596;BME280;19946;49.306;11.350;2023-04-07T10:20:49;96128.53;;;11.22;56.34
596;BME280;19946;49.306;11.350;2023-04-07T10:27:10;96236.44;;;11.04;53.79
596;BME280;19946;49.306;11.350;2023-04-07T10:30:17;96228.28;;;10.79;54.96
596;BME280;19946;49.306;11.350;2023-04-07T10:36:35;96192.81;;;10.32;52.51
596;BME280;19946;49.306;11.350;2023-04-07T11:03:09;96131.56;;;9.42;54.94
596;BME280;19946;49.306;11.350;2023-04-07T11:06:13;96080.78;;;8.71;55.21
596;BME280;19946;49.306;11.350;2023-04-07T11:09:31;96136.97;;;9.30;56.49
596;BME280;19946;49.306;11.350;2023-04-07T11:12:32;96100.75;;;8.69;54.52
596;BME280;19946;49.306;11.350;2023-04-07T11:18:56;96224.00;;;10.30;56.26
596;BME280;19946;49.306;11.350;2023-04-07T11:22:27;96126.31;;;10.61;53.50
596;BME280;19946;49.306;11.350;2023-04-07T11:25:30;96209.75;;;11.50;55.94
596;BME280;19946;49.306;11.350;2023-04-07T11:28:34;96118.41;;;10.72;56.02
596;BME280;19946;49.306;11.350;2023-04-07T11:31:39;96162.66;;;11.54;51.54
596;BME280;19946;49.306;11.350;2023-04-07T11:38:00;96205.13;;;12.35;53.30
596;BME280;19946;49.306;11.350;2023-04-07T11:50:56;96102.97;;;11.27;55.16
596;BME280;19946;49.306;11.350;2023-04-07T11:53:59;96161.00;;;11.90;51.68
596;BME280;19946;49.306;11.350;2023-04-07T11:56:59;96148.63;;;11.75;49.84
596;BME280;19946;49.306;11.350;2023-04-07T12:00:08;96220.19;;;11.77;50.61
596;BME280;19946;49.306;11.350;2023-04-07T12:09:48;96177.56;;;11.80;51.25
596;BME280;19946;49.306;11.350;2023-04-07T12:22:51;96203.22;;;11.83;51.96
596;BME280;19946;49.306;11.350;2023-04-07T12:29:30;96125.16;;;11.12;50.68
596;BME280;19946;49.306;11.350;2023-04-07T12:32:37;96124.06;;;11.05;54.06
596;BME280;19946;49.306;11.350;2023-04-07T12:35:42;96178.63;;;11.13;50.16
596;BME280;19946;49.306;11.350;2023-04-07T12:42:29;96197.72;;;11.02;55.17
596;BME280;19946;49.306;11.350;2023-04-07T12:45:31;96198.38;;;11.04;53.51
596;BME280;19946;49.306;11.350;2023-04-07T12:48:55;96148.53;;;10.73;54.23
596;BME280;19946;49.306;11.350;2023-04-07T12:51:56;96172.63;;;11.03;52.90
596;BME280;19946;49.306;11.350;2023-04-07T12:54:57;96203.56;;;11.23;50.75
596;BME280;19946;49.306;11.350;2023-04-07T12:57:59;96191.72;;;11.02;50.50
596;BME280;19946;49.306;11.350;2023-04-07T13:00:59;96208.19;;;11.20;54.46
596;BME280;19946;49.306;11.350;2023-04-07T13:04:01;96179.44;;;10.94;51.50
596;BME280;19946;49.306;11.350;2023-04-07T13:07:18;96170.41;;;11.17;52.20
596;BME280;19946;49.306;11.350;2023-04-07T13:13:37;96210.66;;;10.92;53.14
596;BME280;19946;49.306;11.350;2023-04-07T13:49:31;96205.34;;;11.04;51.57
596;BME280;19946;49.306;11.350;2023-04-07T13:52:53;96174.09;;;11.05;50.87
596;BME280;19946;49.306;11.350;2023-04-07T13:55:53;96167.13;;;11.15;48.92
596;BME280;19946;49.306;11.350;2023-04-07T13:58:53;96151.25;;;10.91;51.99
596;BME280;19946;49.306;11.350;2023-04-07T14:01:54;96202.09;;;11.48;50.55
596;BME280;19946;49.306;11.350;2023-04-07T14:04:54;96102.34;;;10.49;52.75
596;BME280;19946;49.306;11.350;2023-04-07T14:07:56;96198.94;;;10.98;55.78
596;BME280;19946;49.306;11.350;2023-04-07T14:14:46;96199.63;;;11.00;54.26
596;BME280;19946;49.306;11.350;2023-04-07T14:18:43;96162.13;;;10.94;52.68
596;BME280;19946;49.306;11.350;2023-04-07T14:22:00;96142.16;;;11.24;54.49
596;BME280;19946;49.306;11.350;2023-04-07T14:25:01;96180.44;;;11.86;59.23
596;BME280;19946;49.306;11.350;2023-04-07T14:28:42;96187.88;;;11.62;56.59
596;BME280;19946;49.306;11.350;2023-04-07T16:53:42;96188.78;;;9.28;78.29
596;BME280;19946;49.306;11.350;2023-04-07T16:56:47;96081.50;;;8.52;83.23
596;BME280;19946;49.306;11.350;2023-04-07T16:59:47;96165.22;;;8.80;86.59
596;BME280;19946;49.306;11.350;2023-04-07T17:02:50;96253.91;;;9.11;81.05
596;BME280;19946;49.306;11.350;2023-04-07T17:05:51;96162.97;;;8.34;86.86
596;BME280;19946;49.306;11.350;2023-04-07T17:08:52;96188.09;;;8.32;89.82
596;BME280;19946;49.306;11.350;2023-04-07T17:11:52;96164.56;;;7.92;90.41
596;BME280;19946;49.306;11.350;2023-04-07T17:14:53;96124.66;;;7.75;94.60
596;BME280;19946;49.306;11.350;2023-04-07T17:17:53;96123.28;;;7.60;94.48
596;BME280;19946;49.306;11.350;2023-04-07T17:20:54;96175.50;;;7.84;99.04
596;BME280;19946;49.306;11.350;2023-04-07T17:23:54;96240.53;;;7.88;100.00
596;BME280;19946;49.306;11.350;2023-04-07T17:26:57;96144.38;;;7.09;100.00
596;BME280;19946;49.306;11.350;2023-04-07T17:29:58;96232.09;;;7.41;100.00
596;BME280;19946;49.306;11.350;2023-04-07T17:32:59;96259.00;;;7.37;100.00
596;BME280;19946;49.306;11.350;2023-04-07T17:36:02;96235.22;;;7.22;100.00
596;BME280;19946;49.306;11.350;2023-04-07T17:39:12;96236.22;;;6.97;100.00
596;BME280;19946;49.306;11.350;2023-04-07T17:42:12;96197.41;;;6.42;100.00
596;BME280;19946;49.306;11.350;2023-04-07T17:45:15;96298.56;;;6.90;100.00
596;BME280;19946;49.306;11.350;2023-04-07T17:48:15;96222.78;;;6.35;100.00
596;BME280;19946;49.306;11.350;2023-04-07T17:51:29;96196.84;;;6.14;100.00
596;BME280;19946;49.306;11.350;2023-04-07T17:54:29;96150.38;;;5.68;100.00
596;BME280;19946;49.306;11.350;2023-04-07T17:57:30;96239.25;;;5.83;100.00
596;BME280;19946;49.306;11.350;2023-04-07T18:00:31;96299.34;;;6.06;100.00
596;BME280;19946;49.306;11.350;2023-04-07T18:03:32;96200.16;;;5.42;100.00
596;BME280;19946;49.306;11.350;2023-04-07T18:06:32;96269.19;;;5.72;100.00
596;BME280;19946;49.306;11.350;2023-04-07T18:09:34;96181.47;;;4.76;100.00
596;BME280;19946;49.306;11.350;2023-04-07T18:12:37;96330.00;;;5.59;100.00
596;BME280;19946;49.306;11.350;2023-04-07T18:15:38;96342.34;;;5.66;100.00
596;BME280;19946;49.306;11.350;2023-04-07T18:18:39;96177.59;;;4.44;100.00
596;BME280;19946;49.306;11.350;2023-04-07T18:21:49;96262.53;;;4.79;100.00
596;BME280;19946;49.306;11.350;2023-04-07T18:24:59;96217.56;;;4.34;100.00
596;BME280;19946;49.306;11.350;2023-04-07T18:28:05;96229.97;;;4.27;100.00
596;BME280;19946;49.306;11.350;2023-04-07T18:31:07;96252.50;;;4.49;100.00
596;BME280;19946;49.306;11.350;2023-04-07T18:44:02;96258.28;;;4.12;100.00
596;BME280;19946;49.306;11.350;2023-04-07T18:47:06;96268.69;;;4.23;100.00
596;BME280;19946;49.306;11.350;2023-04-07T18:50:10;96205.06;;;3.61;100.00
596;BME280;19946;49.306;11.350;2023-04-07T19:06:40;96406.66;;;4.30;100.00
596;BME280;19946;49.306;11.350;2023-04-07T19:09:41;96404.97;;;4.01;100.00
596;BME280;19946;49.306;11.350;2023-04-07T19:12:42;96312.03;;;3.42;100.00
596;BME280;19946;49.306;11.350;2023-04-07T19:15:44;96357.59;;;3.80;100.00
596;BME280;19946;49.306;11.350;2023-04-07T19:25:22;96321.13;;;3.18;100.00
596;BME280;19946;49.306;11.350;2023-04-07T19:42:59;96390.88;;;3.21;100.00
596;BME280;19946;49.306;11.350;2023-04-07T20:13:36;96338.44;;;2.22;100.00
596;BME280;19946;49.306;11.350;2023-04-07T20:26:31;96330.59;;;1.93;100.00
596;BME280;19946;49.306;11.350;2023-04-07T20:29:33;96270.44;;;1.72;100.00
596;BME280;19946;49.306;11.350;2023-04-07T20:36:14;96447.19;;;2.74;100.00
596;BME280;19946;49.306;11.350;2023-04-07T20:39:21;96377.53;;;2.06;100.00
596;BME280;19946;49.306;11.350;2023-04-07T20:49:05;96379.66;;;1.98;100.00
596;BME280;19946;49.306;11.350;2023-04-07T20:52:08;96474.94;;;2.49;100.00
596;BME280;19946;49.306;11.350;2023-04-07T20:55:14;96326.41;;;1.75;100.00
596;BME280;19946;49.306;11.350;2023-04-07T21:12:04;96478.31;;;2.49;100.00
596;BME280;19946;49.306;11.350;2023-04-07T21:54:30;96507.75;;;1.91;100.00
596;BME280;19946;49.306;11.350;2023-04-07T22:00:48;96378.03;;;1.13;100.00
596;BME280;19946;49.306;11.350;2023-04-07T22:04:26;96492.03;;;1.98;100.00
596;BME280;19946;49.306;11.350;2023-04-07T22:07:28;96374.91;;;1.25;100.00
596;BME280;19946;49.306;11.350;2023-04-07T22:10:35;96503.09;;;1.99;100.00
596;BME280;19946;49.306;11.350;2023-04-07T22:16:55;96316.75;;;0.80;100.00
596;BME280;19946;49.306;11.350;2023-04-07T22:20:07;96404.66;;;1.41;100.00
596;BME280;19946;49.306;11.350;2023-04-07T22:23:10;96378.56;;;1.36;100.00
596;BME280;19946;49.306;11.350;2023-04-07T22:26:13;96287.06;;;0.61;100.00
596;BME280;19946;49.306;11.350;2023-04-07T22:29:14;96506.19;;;2.05;100.00
596;BME280;19946;49.306;11.350;2023-04-07T22:32:16;96395.53;;;1.55;100.00
596;BME280;19946;49.306;11.350;2023-04-07T22:35:17;96423.66;;;1.70;100.00
596;BME280;19946;49.306;11.350;2023-04-07T22:38:17;96365.91;;;1.35;100.00
596;BME280;19946;49.306;11.350;2023-04-07T22:41:18;96519.75;;;2.23;100.00
596;BME280;19946;49.306;11.350;2023-04-07T22:44:19;96384.38;;;1.40;100.00
596;BME280;19946;49.306;11.350;2023-04-07T22:47:20;96425.69;;;1.64;100.00
596;BME280;19946;49.306;11.350;2023-04-07T22:50:24;96356.00;;;1.12;100.00
596;BME280;19946;49.306;11.350;2023-04-07T22:53:24;96313.94;;;0.86;100.00
596;BME280;19946;49.306;11.350;2023-04-07T22:56:25;96359.69;;;1.06;100.00
596;BME280;19946;49.306;11.350;2023-04-07T22:59:26;96400.50;;;1.40;100.00
596;BME280;19946;49.306;11.350;2023-04-07T23:02:27;96508.25;;;1.97;100.00
596;BME280;19946;49.306;11.350;2023-04-07T23:05:28;96324.22;;;0.65;100.00
596;BME280;19946;49.306;11.350;2023-04-07T23:08:28;96322.81;;;0.60;100.00
596;BME280;19946;49.306;11.350;2023-04-07T23:11:31;96335.25;;;0.66;100.00
596;BME280;19946;49.306;11.350;2023-04-07T23:14:35;96513.09;;;1.69;100.00
596;BME280;19946;49.306;11.350;2023-04-07T23:17:36;96432.16;;;1.36;100.00
596;BME280;19946;49.306;11.350;2023-04-07T23:20:38;96350.75;;;0.97;100.00
596;BME280;19946;49.306;11.350;2023-04-07T23:23:39;96342.38;;;0.77;100.00
596;BME280;19946;49.306;11.350;2023-04-07T23:26:40;96531.91;;;1.66;100.00
596;BME280;19946;49.306;11.350;2023-04-07T23:29:41;96344.91;;;0.59;100.00
596;BME280;19946;49.306;11.350;2023-04-07T23:32:42;96385.44;;;0.83;100.00
596;BME280;19946;49.306;11.350;2023-04-07T23:35:42;96311.78;;;0.42;100.00
596;BME280;19946;49.306;11.350;2023-04-07T23:38:43;96311.50;;;0.29;100.00
596;BME280;19946;49.306;11.350;2023-04-07T23:41:44;96522.16;;;1.57;100.00
596;BME280;19946;49.306;11.350;2023-04-07T23:44:45;96381.25;;;0.82;100.00
596;BME280;19946;49.306;11.350;2023-04-07T23:47:48;96512.19;;;1.70;100.00
596;BME280;19946;49.306;11.350;2023-04-07T23:50:49;96334.09;;;0.54;100.00
596;BME280;19946;49.306;11.350;2023-04-07T23:53:52;96469.78;;;1.50;100.00
596;BME280;19946;49.306;11.350;2023-04-07T23:56:56;96364.59;;;0.92;100.00
596;BME280;19946;49.306;11.350;2023-04-07T23:59:56;96513.91;;;1.87;100.00
